Time;durP1;ratioP1;P1;durP2;ratioP2;P2;SDS_P1;SDS_P2;PMS_P1;PMS_P2;Temp;Humidity;BMP_temperature;BMP_pressure;BME280_temperature;BME280_humidity;BME280_pressure;Samples;Min_cycle;Max_cycle;Signal;HPM_P1;HPM_P2
2023/06/18 00:01:07;;;;;;;8.23;7.43;;;15.70;1.00;;;;;;12509461;23;20249;-79
2023/06/18 00:06:30;;;;;;;12.77;8.85;;;15.60;1.00;;;;;;12509095;23;20173;-79
2023/06/18 00:11:51;;;;;;;8.85;7.95;;;15.50;99.90;;;;;;12487238;23;20204;-78
2023/06/18 00:17:12;;;;;;;10.43;7.90;;;15.50;68.80;;;;;;12509140;23;20282;-78
2023/06/18 00:22:38;;;;;;;8.85;7.85;;;15.50;1.00;;;;;;12592514;23;20174;-77
2023/06/18 00:27:59;;;;;;;8.70;7.85;;;15.50;1.00;;;;;;12528054;23;20238;-78
2023/06/18 00:33:22;;;;;;;9.07;8.18;;;15.60;1.00;;;;;;12507432;23;20528;-79
2023/06/18 00:38:45;;;;;;;8.50;7.60;;;15.60;99.90;;;;;;12508473;23;20360;-79
2023/06/18 00:44:08;;;;;;;8.70;6.97;;;15.50;1.00;;;;;;12508492;23;20179;-79
2023/06/18 00:49:29;;;;;;;7.60;6.72;;;15.50;1.00;;;;;;12508314;23;20167;-78
2023/06/18 00:54:51;;;;;;;8.52;7.57;;;15.50;1.00;;;;;;12506636;23;20237;-78
2023/06/18 01:00:12;;;;;;;8.30;6.97;;;15.50;1.00;;;;;;12487098;23;20174;-78
2023/06/18 01:05:34;;;;;;;10.00;8.18;;;15.40;99.90;;;;;;12506857;23;20167;-78
2023/06/18 01:11:06;;;;;;;8.73;7.85;;;15.40;1.00;;;;;;12506715;23;20190;-79
2023/06/18 01:16:30;;;;;;;8.60;7.80;;;15.40;1.00;;;;;;12507924;23;20171;-77
2023/06/18 01:21:58;;;;;;;8.90;8.00;;;15.50;1.00;;;;;;12506059;23;20488;-79
2023/06/18 01:27:23;;;;;;;9.90;8.30;;;15.50;1.00;;;;;;12613000;23;20541;-79
2023/06/18 01:32:44;;;;;;;8.02;7.22;;;15.50;1.00;;;;;;12507201;23;20205;-79
2023/06/18 01:38:15;;;;;;;10.25;8.45;;;15.40;1.00;;;;;;12506305;23;20167;-79
2023/06/18 01:43:54;;;;;;;9.70;7.93;;;15.40;1.00;;;;;;12508350;23;20171;-79
2023/06/18 01:49:20;;;;;;;9.25;7.95;;;15.30;1.00;;;;;;12508971;23;20197;-78
2023/06/18 01:54:46;;;;;;;8.77;7.93;;;15.20;99.90;;;;;;12509862;23;20238;-78
2023/06/18 02:00:09;;;;;;;10.38;8.77;;;15.20;99.90;;;;;;12509524;23;20166;-80
2023/06/18 02:05:37;;;;;;;9.93;8.93;;;15.20;1.00;;;;;;12529629;23;20415;-79
2023/06/18 02:10:59;;;;;;;9.93;8.93;;;15.00;99.90;;;;;;12508938;23;20223;-79
2023/06/18 02:16:20;;;;;;;9.40;8.40;;;15.00;1.00;;;;;;12489017;23;20511;-78
2023/06/18 02:21:43;;;;;;;11.55;9.02;;;15.00;99.90;;;;;;12509061;23;20514;-79
2023/06/18 02:27:04;;;;;;;10.13;8.60;;;15.00;99.90;;;;;;12634229;23;20174;-79
2023/06/18 02:32:28;;;;;;;9.63;8.23;;;15.00;1.00;;;;;;12508164;23;20213;-78
2023/06/18 02:37:51;;;;;;;9.77;8.13;;;15.10;1.00;;;;;;12509663;23;20182;-79
2023/06/18 02:43:12;;;;;;;8.65;7.70;;;15.20;1.00;;;;;;12634226;23;20364;-78
2023/06/18 02:48:35;;;;;;;11.23;8.50;;;15.20;1.00;;;;;;12594238;23;20454;-78
2023/06/18 02:53:59;;;;;;;8.68;7.32;;;15.30;1.00;;;;;;12528044;23;20217;-79
2023/06/18 02:59:20;;;;;;;8.38;7.22;;;15.30;1.00;;;;;;12593521;23;20173;-78
2023/06/18 03:04:41;;;;;;;9.25;7.47;;;15.30;99.90;;;;;;12634697;23;20529;-78
2023/06/18 03:10:03;;;;;;;9.18;6.93;;;15.40;99.90;;;;;;12488365;23;20173;-78
2023/06/18 03:15:27;;;;;;;8.43;7.53;;;15.50;1.00;;;;;;12508278;23;20201;-79
2023/06/18 03:20:48;;;;;;;13.98;7.28;;;15.50;1.00;;;;;;12468765;23;20175;-78
2023/06/18 03:26:11;;;;;;;8.25;6.97;;;15.50;1.00;;;;;;12528413;23;20280;-78
2023/06/18 03:31:33;;;;;;;7.25;6.07;;;15.60;1.00;;;;;;12633041;23;20217;-78
2023/06/18 03:36:55;;;;;;;7.32;6.43;;;15.60;1.00;;;;;;12632366;23;20177;-78
2023/06/18 03:42:17;;;;;;;7.63;6.18;;;15.70;1.00;;;;;;12488178;23;20398;-78
2023/06/18 03:47:38;;;;;;;8.45;6.82;;;15.70;1.00;;;;;;12508822;23;20181;-78
2023/06/18 03:53:00;;;;;;;10.38;6.47;;;15.80;1.00;;;;;;12593219;23;20193;-78
2023/06/18 03:58:21;;;;;;;7.03;6.32;;;15.80;99.90;;;;;;12507749;23;20180;-78
2023/06/18 04:03:42;;;;;;;6.40;5.80;;;15.80;99.90;;;;;;12592831;23;20285;-78
2023/06/18 04:09:04;;;;;;;6.40;5.80;;;15.90;99.90;;;;;;12632216;23;20193;-78
2023/06/18 04:14:25;;;;;;;6.55;5.63;;;15.90;1.00;;;;;;12632432;23;20203;-77
2023/06/18 04:19:47;;;;;;;5.78;5.18;;;16.00;1.00;;;;;;12507575;23;20181;-79
2023/06/18 04:25:09;;;;;;;8.20;5.68;;;16.00;99.90;;;;;;12467683;23;20503;-79
2023/06/18 04:30:31;;;;;;;5.10;4.60;;;16.10;99.90;;;;;;12527721;23;20177;-78
2023/06/18 04:35:54;;;;;;;6.65;5.60;;;16.10;1.00;;;;;;12632451;23;20231;-75
2023/06/18 04:41:16;;;;;;;6.95;5.53;;;16.30;1.00;;;;;;12487990;23;20174;-77
2023/06/18 04:46:39;;;;;;;6.13;5.07;;;16.40;99.90;;;;;;12613743;23;20243;-78
2023/06/18 04:52:01;;;;;;;5.40;4.90;;;16.50;1.00;;;;;;12506879;23;20245;-75
2023/06/18 04:57:23;;;;;;;6.20;4.43;;;16.60;1.00;;;;;;12507476;23;20170;-75
2023/06/18 05:02:45;;;;;;;7.22;4.57;;;16.80;99.90;;;;;;12507508;23;20168;-78
2023/06/18 05:08:06;;;;;;;5.90;5.28;;;16.80;99.90;;;;;;12613228;23;20171;-79
2023/06/18 05:13:28;;;;;;;7.30;5.22;;;16.90;1.00;;;;;;12506969;23;20262;-78
2023/06/18 05:18:49;;;;;;;5.65;4.28;;;16.90;99.90;;;;;;12508654;23;20167;-76
2023/06/18 05:24:11;;;;;;;6.20;5.03;;;17.00;1.00;;;;;;12509310;23;20191;-78
2023/06/18 05:29:33;;;;;;;5.40;4.90;;;17.00;1.00;;;;;;12509923;23;20167;-79
2023/06/18 05:34:55;;;;;;;5.85;5.25;;;17.00;99.90;;;;;;12634720;23;20206;-78
2023/06/18 05:40:18;;;;;;;6.35;4.70;;;17.10;1.00;;;;;;12509144;23;20173;-78
2023/06/18 05:45:40;;;;;;;6.53;5.28;;;17.30;99.90;;;;;;12509508;23;20178;-78
2023/06/18 05:51:02;;;;;;;6.47;5.30;;;17.40;73.60;;;;;;12489329;23;20172;-77
2023/06/18 05:56:23;;;;;;;5.30;4.78;;;17.40;99.90;;;;;;12529519;23;20263;-79
2023/06/18 06:01:45;;;;;;;8.20;5.25;;;17.40;99.90;;;;;;12509302;23;20171;-79
2023/06/18 06:07:06;;;;;;;6.28;5.55;;;17.70;1.00;;;;;;12634217;23;20309;-78
2023/06/18 06:12:28;;;;;;;6.10;5.50;;;17.90;1.00;;;;;;12489205;23;20502;-77
2023/06/18 06:17:49;;;;;;;6.20;5.38;;;17.90;1.00;;;;;;12529408;23;20164;-78
2023/06/18 06:23:11;;;;;;;7.07;5.40;;;17.80;1.00;;;;;;12510232;23;20466;-77
2023/06/18 06:28:33;;;;;;;5.75;5.15;;;18.00;1.00;;;;;;12508571;23;20175;-78
2023/06/18 06:33:54;;;;;;;7.22;5.35;;;18.30;99.90;;;;;;12633670;23;20204;-78
2023/06/18 06:39:18;;;;;;;5.53;4.82;;;18.60;1.00;;;;;;12508344;23;20164;-79
2023/06/18 06:44:40;;;;;;;6.03;4.82;;;18.90;1.00;;;;;;12508866;23;20168;-79
2023/06/18 06:50:24;;;;;;;6.22;5.10;;;19.40;1.00;;;;;;12508122;23;20183;-78
2023/06/18 06:56:03;;;;;;;7.35;5.00;;;19.80;99.90;;;;;;12508744;23;20214;-78
2023/06/18 07:01:27;;;;;;;7.88;5.50;;;20.70;1.00;;;;;;12508709;23;20164;-79
2023/06/18 07:06:49;;;;;;;5.65;4.72;;;21.40;1.00;;;;;;12507688;23;20176;-79
2023/06/18 07:12:11;;;;;;;4.70;4.30;;;22.00;1.00;;;;;;12509804;23;20278;-78
2023/06/18 07:17:33;;;;;;;9.13;5.07;;;;;;;;;;12509715;23;20168;-80
2023/06/18 07:22:54;;;;;;;5.07;4.57;;;22.60;1.00;;;;;;12509298;23;20164;-79
2023/06/18 07:28:15;;;;;;;8.00;4.90;;;22.80;1.00;;;;;;12509790;23;20211;-79
2023/06/18 07:33:36;;;;;;;8.27;4.80;;;23.60;1.00;;;;;;12509130;23;20196;-78
2023/06/18 07:38:57;;;;;;;6.25;4.90;;;23.40;1.00;;;;;;12507462;23;20198;-78
2023/06/18 07:44:19;;;;;;;7.68;5.18;;;22.70;1.00;;;;;;12507925;23;20168;-78
2023/06/18 07:49:40;;;;;;;6.43;4.70;;;23.20;1.00;;;;;;12468305;23;20176;-77
2023/06/18 07:55:01;;;;;;;8.02;5.00;;;23.20;1.00;;;;;;12632866;23;20200;-79
2023/06/18 08:00:22;;;;;;;4.80;4.30;;;23.10;1.00;;;;;;12633292;23;20172;-79
2023/06/18 08:05:45;;;;;;;4.95;4.45;;;22.70;1.00;;;;;;12508822;23;20498;-79
2023/06/18 08:11:07;;;;;;;5.70;4.28;;;22.40;1.00;;;;;;12508824;23;20164;-79
2023/06/18 08:16:28;;;;;;;4.80;4.28;;;23.10;1.00;;;;;;12509139;23;20249;-78
2023/06/18 08:21:51;;;;;;;6.13;4.70;;;24.10;99.90;;;;;;12507011;23;20282;-78
2023/06/18 08:27:12;;;;;;;6.78;4.85;;;23.70;99.90;;;;;;12507423;23;20175;-78
2023/06/18 08:32:33;;;;;;;5.10;4.15;;;23.10;99.90;;;;;;12508449;23;20200;-78
2023/06/18 08:37:54;;;;;;;4.78;4.30;;;23.00;99.90;;;;;;12508645;23;20470;-78
2023/06/18 08:43:21;;;;;;;6.43;3.92;;;23.40;99.90;;;;;;12508034;23;20364;-79
2023/06/18 08:48:48;;;;;;;5.20;4.50;;;24.60;99.90;;;;;;12507567;23;20165;-78
2023/06/18 08:54:21;;;;;;;5.25;4.75;;;25.70;99.90;;;;;;12509602;23;20266;-78
2023/06/18 08:59:44;;;;;;;8.07;4.35;;;26.00;99.90;;;;;;12510988;23;20165;-79
2023/06/18 09:05:05;;;;;;;6.90;4.43;;;26.60;1.00;;;;;;12510668;23;20459;-78
2023/06/18 09:10:28;;;;;;;8.20;3.97;;;26.80;99.90;;;;;;12508405;23;20218;-78
2023/06/18 09:15:49;;;;;;;4.40;3.92;;;27.10;99.90;;;;;;12509542;23;20532;-78
2023/06/18 09:21:11;;;;;;;5.63;4.50;;;27.40;99.90;;;;;;12573443;23;20223;-78
2023/06/18 09:26:35;;;;;;;4.88;4.00;;;27.50;99.90;;;;;;12595244;23;20356;-78
2023/06/18 09:32:04;;;;;;;4.72;4.00;;;26.40;99.90;;;;;;12508992;23;20246;-78
2023/06/18 09:37:26;;;;;;;5.70;4.60;;;26.00;99.90;;;;;;12509556;23;20168;-79
2023/06/18 09:42:49;;;;;;;4.55;3.75;;;25.90;99.90;;;;;;12508627;23;20239;-78
2023/06/18 09:48:11;;;;;;;8.40;3.97;;;26.00;99.90;;;;;;12508997;23;20176;-79
2023/06/18 09:53:33;;;;;;;4.53;3.90;;;26.30;99.90;;;;;;12509322;23;20362;-79
2023/06/18 09:58:55;;;;;;;7.90;4.50;;;25.90;99.90;;;;;;12509066;23;20546;-78
2023/06/18 10:04:17;;;;;;;6.80;4.65;;;26.20;99.90;;;;;;12510100;23;20191;-78
2023/06/18 10:09:40;;;;;;;5.28;4.50;;;26.10;99.90;;;;;;12508927;23;20171;-79
2023/06/18 10:15:03;;;;;;;4.30;3.90;;;26.50;99.90;;;;;;12510194;23;20552;-78
2023/06/18 10:20:27;;;;;;;4.80;4.30;;;26.40;99.90;;;;;;12509167;23;20165;-78
2023/06/18 10:25:49;;;;;;;5.38;4.50;;;25.70;99.90;;;;;;12508948;23;20203;-79
2023/06/18 10:31:11;;;;;;;7.72;4.00;;;25.60;99.90;;;;;;12510149;23;20172;-79
2023/06/18 10:36:33;;;;;;;4.63;4.00;;;25.60;99.90;;;;;;12509111;23;20371;-78
2023/06/18 10:41:55;;;;;;;5.10;4.25;;;25.70;99.90;;;;;;12508494;23;20171;-78
2023/06/18 10:47:22;;;;;;;4.47;4.07;;;26.10;99.90;;;;;;12488603;23;20173;-78
2023/06/18 10:52:46;;;;;;;7.60;4.28;;;26.10;99.90;;;;;;12509567;23;20251;-78
2023/06/18 10:58:08;;;;;;;5.07;4.32;;;26.80;99.90;;;;;;12508381;23;20239;-78
2023/06/18 11:03:40;;;;;;;5.53;3.60;;;26.70;99.90;;;;;;12634265;23;20183;-78
2023/06/18 11:09:01;;;;;;;5.90;3.45;;;27.20;99.90;;;;;;12508619;23;20171;-79
2023/06/18 11:14:26;;;;;;;5.05;3.90;;;27.10;99.90;;;;;;12488285;23;20231;-79
2023/06/18 11:19:50;;;;;;;3.85;3.47;;;27.80;99.90;;;;;;12509588;23;20165;-79
2023/06/18 11:25:17;;;;;;;4.28;3.88;;;27.90;99.90;;;;;;12509798;23;20191;-78
2023/06/18 11:30:41;;;;;;;4.85;3.60;;;28.30;99.90;;;;;;12509685;23;20451;-78
2023/06/18 11:36:11;;;;;;;5.25;4.20;;;28.50;99.90;;;;;;12508169;23;20199;-78
2023/06/18 11:41:33;;;;;;;5.35;3.80;;;;;;;;;;12488313;23;20225;-78
2023/06/18 11:46:55;;;;;;;8.02;3.60;;;;;;;;;;12508556;23;20168;-78
2023/06/18 11:52:17;;;;;;;4.07;3.58;;;;;;;;;;12509166;23;20361;-78
2023/06/18 11:57:39;;;;;;;5.85;3.65;;;29.30;1.00;;;;;;12508196;23;20239;-78
2023/06/18 12:03:01;;;;;;;5.10;3.33;;;29.30;1.00;;;;;;12508174;23;20196;-78
2023/06/18 12:08:22;;;;;;;4.07;3.38;;;29.00;1.00;;;;;;12614112;23;20164;-78
2023/06/18 12:13:45;;;;;;;4.35;3.53;;;28.10;1.00;;;;;;12509070;23;20217;-78
2023/06/18 12:19:08;;;;;;;4.13;3.70;;;28.50;1.00;;;;;;12508851;23;20164;-78
2023/06/18 12:24:29;;;;;;;4.40;3.42;;;28.50;1.00;;;;;;12507917;23;20184;-78
2023/06/18 12:29:52;;;;;;;3.70;3.40;;;27.90;1.00;;;;;;12507460;23;20164;-78
2023/06/18 12:35:16;;;;;;;3.70;3.28;;;27.50;1.00;;;;;;12508155;23;20203;-78
2023/06/18 12:40:51;;;;;;;3.50;3.00;;;27.40;1.00;;;;;;12508618;23;20455;-78
2023/06/18 12:46:24;;;;;;;3.80;3.40;;;27.00;1.00;;;;;;12507210;23;20278;-78
2023/06/18 12:51:46;;;;;;;4.55;3.38;;;26.70;1.00;;;;;;12507081;23;20164;-79
2023/06/18 12:57:07;;;;;;;4.18;3.72;;;26.80;1.00;;;;;;12507084;23;20192;-78
2023/06/18 13:02:29;;;;;;;5.05;3.70;;;26.70;1.00;;;;;;12507278;23;20349;-79
2023/06/18 13:07:53;;;;;;;4.32;3.80;;;26.80;1.00;;;;;;12505936;23;20204;-78
2023/06/18 13:13:18;;;;;;;3.70;3.40;;;26.90;1.00;;;;;;12506951;23;20256;-78
2023/06/18 13:18:39;;;;;;;7.40;3.47;;;27.00;1.00;;;;;;12506670;23;20390;-78
2023/06/18 13:24:01;;;;;;;5.13;3.58;;;27.00;1.00;;;;;;12507184;23;20430;-78
2023/06/18 13:29:24;;;;;;;4.78;3.50;;;26.90;1.00;;;;;;12486529;23;20518;-78
2023/06/18 13:34:46;;;;;;;5.15;3.50;;;26.80;1.00;;;;;;12505611;23;20448;-78
2023/06/18 13:40:08;;;;;;;4.45;4.05;;;26.70;1.00;;;;;;12527847;23;20164;-79
2023/06/18 13:45:29;;;;;;;4.35;3.90;;;26.80;1.00;;;;;;12509141;23;20172;-78
2023/06/18 13:50:50;;;;;;;3.50;3.20;;;26.80;1.00;;;;;;12510331;23;20213;-78
2023/06/18 13:56:11;;;;;;;3.70;3.15;;;26.60;1.00;;;;;;12510627;23;20191;-78
2023/06/18 14:01:33;;;;;;;4.65;3.88;;;26.40;1.00;;;;;;12615755;23;20366;-79
2023/06/18 14:06:54;;;;;;;4.70;4.05;;;26.10;1.00;;;;;;12508668;23;20474;-79
2023/06/18 14:12:15;;;;;;;3.78;3.47;;;26.10;1.00;;;;;;12508726;23;20442;-78
2023/06/18 14:17:37;;;;;;;6.05;4.05;;;26.10;1.00;;;;;;12508782;23;20219;-78
2023/06/18 14:23:00;;;;;;;4.50;3.38;;;26.00;1.00;;;;;;12488281;23;20341;-79
2023/06/18 14:28:22;;;;;;;4.13;3.50;;;26.00;1.00;;;;;;12488411;23;20176;-78
2023/06/18 14:33:43;;;;;;;5.10;3.38;;;25.80;1.00;;;;;;12509873;23;20195;-78
2023/06/18 14:39:07;;;;;;;3.90;3.60;;;25.70;1.00;;;;;;12509433;23;20168;-78
2023/06/18 14:44:29;;;;;;;4.18;3.83;;;25.60;1.00;;;;;;12508662;23;20168;-78
2023/06/18 14:49:54;;;;;;;4.32;3.58;;;25.70;1.00;;;;;;12510280;23;20172;-78
2023/06/18 14:55:16;;;;;;;3.58;3.22;;;25.80;1.00;;;;;;12508151;23;20299;-79
2023/06/18 15:00:37;;;;;;;4.15;3.70;;;25.90;1.00;;;;;;12508956;23;20442;-79
2023/06/18 15:05:58;;;;;;;3.50;3.20;;;26.10;1.00;;;;;;12508301;23;20183;-78
2023/06/18 15:11:20;;;;;;;3.67;3.33;;;26.10;1.00;;;;;;12509322;23;20171;-78
2023/06/18 15:16:41;;;;;;;4.47;3.65;;;25.90;1.00;;;;;;12508364;23;20473;-78
2023/06/18 15:22:03;;;;;;;4.22;3.80;;;25.70;1.00;;;;;;12509562;23;20165;-79
2023/06/18 15:27:27;;;;;;;4.78;4.07;;;25.60;1.00;;;;;;12510350;23;20175;-78
2023/06/18 15:32:49;;;;;;;4.40;4.00;;;25.60;1.00;;;;;;12633014;23;20196;-78
2023/06/18 15:38:10;;;;;;;5.70;3.38;;;25.40;1.00;;;;;;12508996;23;20214;-78
2023/06/18 15:43:32;;;;;;;4.28;3.88;;;25.40;1.00;;;;;;12509474;23;20459;-78
2023/06/18 15:48:53;;;;;;;5.07;3.15;;;25.30;1.00;;;;;;12509017;23;20168;-78
2023/06/18 15:54:16;;;;;;;4.03;3.22;;;;;;;;;;12507604;23;20199;-78
2023/06/18 15:59:38;;;;;;;3.88;3.53;;;24.90;1.00;;;;;;12509205;23;20206;-78
2023/06/18 16:05:00;;;;;;;4.55;4.10;;;25.10;1.00;;;;;;12506736;23;20191;-78
2023/06/18 16:10:24;;;;;;;5.40;4.40;;;24.90;1.00;;;;;;12508625;23;20164;-78
2023/06/18 16:15:45;;;;;;;5.00;4.20;;;24.70;1.00;;;;;;12508893;23;20262;-78
2023/06/18 16:21:07;;;;;;;3.88;3.47;;;24.60;1.00;;;;;;12487628;23;20164;-78
2023/06/18 16:26:29;;;;;;;4.20;3.60;;;24.60;1.00;;;;;;12507921;23;20168;-78
2023/06/18 16:31:49;;;;;;;6.32;4.40;;;24.50;1.00;;;;;;12506917;23;20546;-77
2023/06/18 16:37:11;;;;;;;6.88;4.18;;;24.40;1.00;;;;;;12487060;23;20377;-77
2023/06/18 16:42:32;;;;;;;5.63;4.10;;;24.10;1.00;;;;;;12507640;23;20168;-78
2023/06/18 16:47:54;;;;;;;5.10;4.57;;;23.90;1.00;;;;;;12508184;23;20462;-78
2023/06/18 16:53:16;;;;;;;5.45;4.30;;;23.50;99.90;;;;;;12508019;23;20341;-78
2023/06/18 16:58:36;;;;;;;6.93;4.13;;;23.50;99.90;;;;;;12506851;23;20187;-77
2023/06/18 17:04:01;;;;;;;6.30;5.00;;;23.40;99.90;;;;;;12507948;23;20171;-78
2023/06/18 17:09:22;;;;;;;7.68;4.55;;;23.10;99.90;;;;;;12506915;23;20176;-78
2023/06/18 17:14:43;;;;;;;6.55;4.43;;;22.60;1.00;;;;;;12508926;23;20358;-78
2023/06/18 17:20:06;;;;;;;6.75;4.80;;;22.30;1.00;;;;;;12510343;23;20168;-77
2023/06/18 17:25:27;;;;;;;4.95;4.35;;;22.00;99.90;;;;;;12491323;23;20176;-78
2023/06/18 17:30:49;;;;;;;5.28;4.75;;;21.90;1.00;;;;;;12508722;23;20179;-78
2023/06/18 17:36:10;;;;;;;6.63;4.72;;;21.70;36.40;;;;;;12508377;23;20433;-78
2023/06/18 17:41:32;;;;;;;4.90;4.40;;;21.50;1.00;;;;;;12508703;23;20176;-77
2023/06/18 17:46:53;;;;;;;6.00;5.40;;;21.50;1.00;;;;;;12510032;23;20366;-78
2023/06/18 17:52:14;;;;;;;5.95;5.35;;;21.40;1.00;;;;;;12508453;23;20198;-77
2023/06/18 17:57:38;;;;;;;7.65;5.75;;;21.40;99.90;;;;;;12509699;23;20243;-78
2023/06/18 18:02:59;;;;;;;9.15;6.32;;;21.30;1.00;;;;;;12508405;23;20173;-78
2023/06/18 18:08:21;;;;;;;8.18;6.03;;;21.20;1.00;;;;;;12508325;23;20173;-78
2023/06/18 18:13:43;;;;;;;7.07;5.80;;;21.20;99.90;;;;;;12488279;23;20199;-78
2023/06/18 18:19:05;;;;;;;7.38;5.72;;;;;;;;;;12508386;23;20398;-78
2023/06/18 18:24:26;;;;;;;6.45;5.30;;;;;;;;;;12507133;23;20191;-78
2023/06/18 18:29:48;;;;;;;9.88;5.82;;;;;;;;;;12507745;23;20168;-79
2023/06/18 18:35:10;;;;;;;7.63;6.18;;;;;;;;;;12508390;23;20588;-78
2023/06/18 18:40:31;;;;;;;8.02;6.72;;;;;;;;;;12509867;23;20164;-78
2023/06/18 18:45:53;;;;;;;8.52;6.10;;;;;;;;;;12510560;23;20233;-78
2023/06/18 18:51:14;;;;;;;6.55;5.90;;;20.60;46.20;;;;;;12511211;23;20173;-78
2023/06/18 18:56:35;;;;;;;7.70;6.40;;;20.40;48.60;;;;;;12508873;23;20199;-78
2023/06/18 19:01:56;;;;;;;7.90;7.00;;;20.30;99.90;;;;;;12509609;23;20164;-78
2023/06/18 19:07:17;;;;;;;7.35;5.97;;;20.10;1.00;;;;;;12508723;23;20347;-78
2023/06/18 19:12:39;;;;;;;8.82;6.78;;;20.00;6.90;;;;;;12507308;23;20211;-78
2023/06/18 19:18:00;;;;;;;7.35;5.85;;;19.80;99.90;;;;;;12508047;23;20192;-78
2023/06/18 19:23:22;;;;;;;7.07;6.47;;;19.70;1.00;;;;;;12507670;23;20206;-78
2023/06/18 19:28:43;;;;;;;8.20;5.82;;;19.60;99.90;;;;;;12506956;23;20198;-77
2023/06/18 19:34:04;;;;;;;12.07;7.15;;;19.50;1.00;;;;;;12507561;23;20200;-77
2023/06/18 19:39:25;;;;;;;8.45;6.43;;;19.50;99.90;;;;;;12508872;23;20188;-77
2023/06/18 19:44:46;;;;;;;7.30;6.35;;;19.40;1.00;;;;;;12508670;23;20252;-78
2023/06/18 19:50:08;;;;;;;7.35;6.45;;;19.30;1.00;;;;;;12506934;23;20168;-79
2023/06/18 19:55:30;;;;;;;8.55;7.35;;;19.20;1.00;;;;;;12507663;23;20199;-79
2023/06/18 20:00:52;;;;;;;8.80;6.32;;;19.10;10.30;;;;;;12508351;23;20171;-79
2023/06/18 20:06:13;;;;;;;16.30;8.02;;;19.10;99.90;;;;;;12507634;23;20191;-78
2023/06/18 20:11:35;;;;;;;10.35;7.15;;;19.10;99.90;;;;;;12506501;23;20239;-79
2023/06/18 20:16:56;;;;;;;9.90;6.47;;;19.10;99.90;;;;;;12486519;23;20203;-78
2023/06/18 20:22:18;;;;;;;8.52;6.43;;;19.00;99.90;;;;;;12508771;23;20184;-78
2023/06/18 20:27:40;;;;;;;6.72;5.78;;;19.00;1.00;;;;;;12508737;23;20455;-78
2023/06/18 20:33:03;;;;;;;6.75;6.03;;;18.90;1.00;;;;;;12506650;23;20219;-78
2023/06/18 20:38:25;;;;;;;8.85;6.20;;;18.90;1.00;;;;;;12506808;23;20203;-77
2023/06/18 20:43:46;;;;;;;7.30;6.10;;;18.70;99.90;;;;;;12508178;23;20164;-78
2023/06/18 20:49:07;;;;;;;8.48;6.45;;;18.70;55.60;;;;;;12507408;23;20248;-77
2023/06/18 20:54:30;;;;;;;9.95;7.18;;;18.70;99.90;;;;;;12510369;23;20198;-77
2023/06/18 20:59:51;;;;;;;8.52;6.75;;;;;;;;;;12509365;23;20164;-77
2023/06/18 21:05:13;;;;;;;8.35;6.63;;;;;;;;;;12511017;23;20294;-77
2023/06/18 21:10:34;;;;;;;6.95;6.22;;;18.70;99.90;;;;;;12508860;23;20172;-76
2023/06/18 21:15:55;;;;;;;7.30;5.40;;;18.50;1.00;;;;;;12529204;23;20192;-76
2023/06/18 21:21:17;;;;;;;7.15;6.30;;;18.40;1.00;;;;;;12509321;23;20395;-78
2023/06/18 21:26:38;;;;;;;8.20;7.38;;;18.30;99.90;;;;;;12509193;23;20191;-76
2023/06/18 21:31:59;;;;;;;10.40;6.47;;;18.40;76.80;;;;;;12509347;23;20222;-76
2023/06/18 21:37:20;;;;;;;9.27;7.30;;;18.30;99.90;;;;;;12509148;23;20195;-76
2023/06/18 21:42:43;;;;;;;12.57;8.23;;;18.20;1.00;;;;;;12615670;23;20164;-76
2023/06/18 21:48:04;;;;;;;11.13;8.35;;;18.10;1.00;;;;;;12510016;23;20165;-76
2023/06/18 21:53:27;;;;;;;11.60;7.90;;;18.10;99.90;;;;;;12489102;23;20176;-78
2023/06/18 21:58:48;;;;;;;10.48;8.05;;;18.10;99.90;;;;;;12509557;23;20176;-77
2023/06/18 22:04:10;;;;;;;15.90;10.05;;;18.00;99.90;;;;;;12634548;23;20183;-78
2023/06/18 22:09:31;;;;;;;18.77;10.73;;;17.80;1.00;;;;;;12508802;23;20172;-78
2023/06/18 22:14:52;;;;;;;11.30;9.30;;;17.80;1.00;;;;;;12509706;23;20196;-77
2023/06/18 22:20:13;;;;;;;13.98;9.73;;;17.80;1.00;;;;;;12510089;23;20164;-78
2023/06/18 22:25:34;;;;;;;11.02;9.48;;;17.90;66.90;;;;;;12509188;23;20226;-78
2023/06/18 22:31:32;;;;;;;11.55;8.60;;;17.90;99.90;;;;;;12509837;23;20164;-79
2023/06/18 22:36:53;;;;;;;9.18;8.15;;;17.70;99.90;;;;;;12475225;23;20512;-78
2023/06/18 22:42:15;;;;;;;11.52;8.85;;;17.70;1.00;;;;;;12392277;23;20165;-78
2023/06/18 22:47:36;;;;;;;13.20;9.25;;;17.50;1.00;;;;;;12392742;23;20169;-78
2023/06/18 22:52:57;;;;;;;14.88;10.60;;;17.40;1.00;;;;;;12393165;23;20468;-78
2023/06/18 22:58:19;;;;;;;12.65;10.00;;;17.40;1.00;;;;;;12392491;23;20204;-78
2023/06/18 23:03:40;;;;;;;14.23;10.95;;;17.30;1.00;;;;;;12392830;23;20236;-77
2023/06/18 23:09:01;;;;;;;17.33;10.80;;;17.30;1.00;;;;;;12392820;23;20170;-78
2023/06/18 23:14:22;;;;;;;17.52;12.57;;;17.10;99.90;;;;;;12391109;24;20211;-78
2023/06/18 23:19:45;;;;;;;14.45;12.40;;;17.00;1.00;;;;;;12391234;23;20243;-78
2023/06/18 23:25:08;;;;;;;15.18;11.90;;;16.90;1.00;;;;;;12371354;23;20173;-78
2023/06/18 23:30:34;;;;;;;16.23;12.32;;;16.90;91.00;;;;;;12391340;23;20185;-78
2023/06/18 23:35:55;;;;;;;12.75;10.70;;;16.90;1.00;;;;;;12493588;23;20207;-78
2023/06/18 23:41:17;;;;;;;11.50;9.63;;;17.00;1.00;;;;;;12507993;23;20164;-79
2023/06/18 23:46:38;;;;;;;13.55;10.35;;;16.90;1.00;;;;;;12487778;23;20251;-78
2023/06/18 23:52:00;;;;;;;11.65;8.50;;;17.00;99.90;;;;;;12507987;23;20409;-78
2023/06/18 23:57:21;;;;;;;13.10;9.95;;;16.90;1.00;;;;;;12509235;23;20206;-79
